aviador You're here:

KAVL Decoded Metar

ASHEVILLE in NC, USA
Report Time2018-07-18 22:54:00
UTC Time2018-07-18 23:49:01
Flight Rules vfr VFR
Wind320° at 10 kt
W.Decomp.*RWY 34: 9.6 kt HW 2.8 kt LCW
W.Rank320° ranks 11
Current wind is above 320° avg. (7.4)
Visibility9999 m
Phenomena:N/A
Clouds:N/A
Expected CloudBase > 5,600 ft AGL from Temp-Dew spread
CeilingNone
Temp28°C (ISA +17)
Dew Point14°C (42% RH)
Heat Index27.8°C
AAT25.6°C
QNH1016 hPa
Density Alt4,304 ft
Elevation2,198 ft
Report Wrong Elevation
Raw Report
KAVL 182254Z 32010KT 10SM CLR 28/14 A3001 RMK AO2 LTG DSNT SW
SLP132 T02830144=

Extra information for KAVL:More info

Metar Taf Metar & Taf Last 4 Metars F.Rules Stats Wind Profile Meteogram Temp Stats Airport Information Weather charts Add Link Nearby VenuesMetar ALERT Operation Metar Decoded Social comments

AIRNAV info for KAVL